sensor_id;sensor_type;location;lat;lon;timestamp;temperature;humidity
44627;DHT22;30333;52.192;8.834;2023-03-23T00:00:47;12.50;99.90
44627;DHT22;30333;52.192;8.834;2023-03-23T00:05:39;12.50;99.90
44627;DHT22;30333;52.192;8.834;2023-03-23T00:08:07;12.40;99.90
44627;DHT22;30333;52.192;8.834;2023-03-23T00:10:35;12.50;99.90
44627;DHT22;30333;52.192;8.834;2023-03-23T00:20:28;12.10;99.90
44627;DHT22;30333;52.192;8.834;2023-03-23T00:40:09;12.10;99.90
44627;DHT22;30333;52.192;8.834;2023-03-23T00:50:03;12.00;99.90
44627;DHT22;30333;52.192;8.834;2023-03-23T01:36:29;11.90;99.90
44627;DHT22;30333;52.192;8.834;2023-03-23T01:38:58;13.80;99.90
44627;DHT22;30333;52.192;8.834;2023-03-23T01:44:05;12.00;99.90
44627;DHT22;30333;52.192;8.834;2023-03-23T01:46:35;11.90;99.90
44627;DHT22;30333;52.192;8.834;2023-03-23T01:49:02;11.00;99.90
44627;DHT22;30333;52.192;8.834;2023-03-23T01:51:34;11.90;99.90
44627;DHT22;30333;52.192;8.834;2023-03-23T01:54:03;11.80;99.90
44627;DHT22;30333;52.192;8.834;2023-03-23T01:56:34;11.90;99.90
44627;DHT22;30333;52.192;8.834;2023-03-23T02:03:56;11.80;99.90
44627;DHT22;30333;52.192;8.834;2023-03-23T02:08:51;11.80;99.90
44627;DHT22;30333;52.192;8.834;2023-03-23T02:11:20;11.90;99.90
44627;DHT22;30333;52.192;8.834;2023-03-23T02:13:47;11.90;99.90
44627;DHT22;30333;52.192;8.834;2023-03-23T02:16:34;11.90;99.90
44627;DHT22;30333;52.192;8.834;2023-03-23T02:24:21;11.90;99.90
44627;DHT22;30333;52.192;8.834;2023-03-23T02:26:58;11.80;99.90
44627;DHT22;30333;52.192;8.834;2023-03-23T02:35:18;11.90;99.90
44627;DHT22;30333;52.192;8.834;2023-03-23T02:37:58;11.90;99.90
44627;DHT22;30333;52.192;8.834;2023-03-23T02:40:32;11.80;99.90
44627;DHT22;30333;52.192;8.834;2023-03-23T02:42:58;11.90;99.90
44627;DHT22;30333;52.192;8.834;2023-03-23T02:45:27;11.90;99.90
44627;DHT22;30333;52.192;8.834;2023-03-23T02:47:55;11.90;99.90
44627;DHT22;30333;52.192;8.834;2023-03-23T02:50:24;11.90;99.90
44627;DHT22;30333;52.192;8.834;2023-03-23T02:52:52;11.90;99.90
44627;DHT22;30333;52.192;8.834;2023-03-23T04:20:39;11.70;99.90
44627;DHT22;30333;52.192;8.834;2023-03-23T04:23:05;11.70;99.90
44627;DHT22;30333;52.192;8.834;2023-03-23T04:25:31;11.60;99.90
44627;DHT22;30333;52.192;8.834;2023-03-23T04:27:58;11.60;99.90
44627;DHT22;30333;52.192;8.834;2023-03-23T04:30:26;11.60;99.90
44627;DHT22;30333;52.192;8.834;2023-03-23T04:32:52;11.70;99.90
44627;DHT22;30333;52.192;8.834;2023-03-23T04:35:23;11.70;99.90
44627;DHT22;30333;52.192;8.834;2023-03-23T04:37:52;11.70;99.90
44627;DHT22;30333;52.192;8.834;2023-03-23T04:40:19;11.70;99.90
44627;DHT22;30333;52.192;8.834;2023-03-23T04:45:13;11.70;99.90
44627;DHT22;30333;52.192;8.834;2023-03-23T04:47:40;11.70;99.90
44627;DHT22;30333;52.192;8.834;2023-03-23T04:50:12;11.70;99.90
44627;DHT22;30333;52.192;8.834;2023-03-23T04:52:38;11.70;99.90
44627;DHT22;30333;52.192;8.834;2023-03-23T04:55:07;11.70;99.90
44627;DHT22;30333;52.192;8.834;2023-03-23T04:57:33;11.60;99.90
44627;DHT22;30333;52.192;8.834;2023-03-23T05:00:00;11.60;99.90
44627;DHT22;30333;52.192;8.834;2023-03-23T05:02:26;11.70;99.90
44627;DHT22;30333;52.192;8.834;2023-03-23T05:04:56;11.70;99.90
44627;DHT22;30333;52.192;8.834;2023-03-23T05:07:22;11.60;99.90
44627;DHT22;30333;52.192;8.834;2023-03-23T05:14:41;11.60;99.90
44627;DHT22;30333;52.192;8.834;2023-03-23T05:17:07;11.70;99.90
44627;DHT22;30333;52.192;8.834;2023-03-23T05:19:34;11.80;99.90
44627;DHT22;30333;52.192;8.834;2023-03-23T05:22:01;11.80;99.90
44627;DHT22;30333;52.192;8.834;2023-03-23T05:24:31;11.80;99.90
44627;DHT22;30333;52.192;8.834;2023-03-23T05:29:23;11.70;99.90
44627;DHT22;30333;52.192;8.834;2023-03-23T05:31:49;11.70;99.90
44627;DHT22;30333;52.192;8.834;2023-03-23T05:36:41;11.80;99.90
44627;DHT22;30333;52.192;8.834;2023-03-23T05:39:09;11.80;99.90
44627;DHT22;30333;52.192;8.834;2023-03-23T05:41:35;11.90;99.90
44627;DHT22;30333;52.192;8.834;2023-03-23T05:44:01;11.90;99.90
44627;DHT22;30333;52.192;8.834;2023-03-23T05:46:27;11.90;99.90
44627;DHT22;30333;52.192;8.834;2023-03-23T05:48:53;11.90;99.90
44627;DHT22;30333;52.192;8.834;2023-03-23T05:56:12;11.80;99.90
44627;DHT22;30333;52.192;8.834;2023-03-23T05:58:38;11.80;99.90
44627;DHT22;30333;52.192;8.834;2023-03-23T06:01:07;11.80;99.90
44627;DHT22;30333;52.192;8.834;2023-03-23T06:03:33;11.80;99.90
44627;DHT22;30333;52.192;8.834;2023-03-23T06:06:02;11.70;99.90
44627;DHT22;30333;52.192;8.834;2023-03-23T06:08:27;11.80;99.90
44627;DHT22;30333;52.192;8.834;2023-03-23T06:10:53;11.80;99.90
44627;DHT22;30333;52.192;8.834;2023-03-23T06:13:19;11.90;99.90
44627;DHT22;30333;52.192;8.834;2023-03-23T06:15:44;11.90;99.90
44627;DHT22;30333;52.192;8.834;2023-03-23T06:18:10;12.00;99.90
44627;DHT22;30333;52.192;8.834;2023-03-23T06:20:38;12.00;99.90
44627;DHT22;30333;52.192;8.834;2023-03-23T06:23:04;12.10;99.90
44627;DHT22;30333;52.192;8.834;2023-03-23T06:25:30;12.10;99.90
44627;DHT22;30333;52.192;8.834;2023-03-23T06:27:56;11.50;99.90
44627;DHT22;30333;52.192;8.834;2023-03-23T06:30:21;12.20;99.90
44627;DHT22;30333;52.192;8.834;2023-03-23T06:35:13;12.20;99.90
44627;DHT22;30333;52.192;8.834;2023-03-23T06:40:06;12.20;99.90
44627;DHT22;30333;52.192;8.834;2023-03-23T06:42:32;12.20;99.90
44627;DHT22;30333;52.192;8.834;2023-03-23T06:44:58;12.20;99.90
44627;DHT22;30333;52.192;8.834;2023-03-23T06:47:26;12.30;99.90
44627;DHT22;30333;52.192;8.834;2023-03-23T06:49:51;12.30;99.90
44627;DHT22;30333;52.192;8.834;2023-03-23T06:52:17;12.30;99.90
44627;DHT22;30333;52.192;8.834;2023-03-23T06:54:43;12.40;99.90
44627;DHT22;30333;52.192;8.834;2023-03-23T06:57:08;12.40;99.90
44627;DHT22;30333;52.192;8.834;2023-03-23T06:59:34;12.40;99.90
44627;DHT22;30333;52.192;8.834;2023-03-23T07:01:59;12.40;99.90
44627;DHT22;30333;52.192;8.834;2023-03-23T07:04:25;12.50;99.90
44627;DHT22;30333;52.192;8.834;2023-03-23T07:06:51;12.40;99.90
44627;DHT22;30333;52.192;8.834;2023-03-23T07:09:16;12.50;99.90
44627;DHT22;30333;52.192;8.834;2023-03-23T07:11:42;12.60;99.90
44627;DHT22;30333;52.192;8.834;2023-03-23T07:14:08;12.60;99.90
44627;DHT22;30333;52.192;8.834;2023-03-23T07:19:00;12.60;99.90
44627;DHT22;30333;52.192;8.834;2023-03-23T07:21:26;12.60;99.90
44627;DHT22;30333;52.192;8.834;2023-03-23T07:23:52;12.70;99.90
44627;DHT22;30333;52.192;8.834;2023-03-23T07:26:17;12.70;99.90
44627;DHT22;30333;52.192;8.834;2023-03-23T07:28:43;12.90;99.90
44627;DHT22;30333;52.192;8.834;2023-03-23T07:31:08;12.90;99.90
44627;DHT22;30333;52.192;8.834;2023-03-23T07:33:34;13.00;99.90
44627;DHT22;30333;52.192;8.834;2023-03-23T07:36:01;13.00;99.90
44627;DHT22;30333;52.192;8.834;2023-03-23T07:38:28;13.10;99.90
44627;DHT22;30333;52.192;8.834;2023-03-23T07:40:54;13.20;99.90
44627;DHT22;30333;52.192;8.834;2023-03-23T07:43:19;13.20;99.90
44627;DHT22;30333;52.192;8.834;2023-03-23T07:45:45;13.40;99.90
44627;DHT22;30333;52.192;8.834;2023-03-23T07:48:11;13.60;99.90
44627;DHT22;30333;52.192;8.834;2023-03-23T07:55:30;13.70;99.90
44627;DHT22;30333;52.192;8.834;2023-03-23T07:57:55;13.70;99.90
44627;DHT22;30333;52.192;8.834;2023-03-23T08:00:22;13.80;99.90
44627;DHT22;30333;52.192;8.834;2023-03-23T08:02:51;13.90;99.90
44627;DHT22;30333;52.192;8.834;2023-03-23T08:05:17;13.90;99.90
44627;DHT22;30333;52.192;8.834;2023-03-23T08:07:45;13.80;99.90
44627;DHT22;30333;52.192;8.834;2023-03-23T08:10:13;13.80;99.90
44627;DHT22;30333;52.192;8.834;2023-03-23T08:12:41;13.80;99.90
44627;DHT22;30333;52.192;8.834;2023-03-23T08:15:08;13.90;99.90
44627;DHT22;30333;52.192;8.834;2023-03-23T08:17:35;13.90;99.90
44627;DHT22;30333;52.192;8.834;2023-03-23T08:20:01;13.90;99.90
44627;DHT22;30333;52.192;8.834;2023-03-23T08:22:33;14.00;99.90
44627;DHT22;30333;52.192;8.834;2023-03-23T08:24:58;13.90;99.90
44627;DHT22;30333;52.192;8.834;2023-03-23T08:27:26;13.80;99.90
44627;DHT22;30333;52.192;8.834;2023-03-23T08:29:51;13.90;99.90
44627;DHT22;30333;52.192;8.834;2023-03-23T08:32:17;14.00;99.90
44627;DHT22;30333;52.192;8.834;2023-03-23T08:34:42;14.00;99.90
44627;DHT22;30333;52.192;8.834;2023-03-23T08:37:08;14.20;99.90
44627;DHT22;30333;52.192;8.834;2023-03-23T08:39:34;14.10;99.90
44627;DHT22;30333;52.192;8.834;2023-03-23T08:42:00;14.20;99.90
44627;DHT22;30333;52.192;8.834;2023-03-23T08:44:25;14.30;99.90
44627;DHT22;30333;52.192;8.834;2023-03-23T08:46:51;14.30;99.90
44627;DHT22;30333;52.192;8.834;2023-03-23T08:49:22;14.30;99.90
44627;DHT22;30333;52.192;8.834;2023-03-23T08:51:48;14.40;99.90
44627;DHT22;30333;52.192;8.834;2023-03-23T08:54:13;14.50;99.90
44627;DHT22;30333;52.192;8.834;2023-03-23T08:56:39;14.40;99.90
44627;DHT22;30333;52.192;8.834;2023-03-23T08:59:05;14.50;99.90
44627;DHT22;30333;52.192;8.834;2023-03-23T09:01:30;14.60;99.90
44627;DHT22;30333;52.192;8.834;2023-03-23T09:03:57;14.60;99.90
44627;DHT22;30333;52.192;8.834;2023-03-23T09:06:23;14.60;99.90
44627;DHT22;30333;52.192;8.834;2023-03-23T09:08:49;14.80;99.90
44627;DHT22;30333;52.192;8.834;2023-03-23T09:11:15;14.70;99.90
44627;DHT22;30333;52.192;8.834;2023-03-23T09:13:41;14.70;99.90
44627;DHT22;30333;52.192;8.834;2023-03-23T09:16:07;14.60;99.90
44627;DHT22;30333;52.192;8.834;2023-03-23T09:18:34;14.50;99.90
44627;DHT22;30333;52.192;8.834;2023-03-23T09:21:00;14.60;99.90
44627;DHT22;30333;52.192;8.834;2023-03-23T09:23:26;14.60;99.90
44627;DHT22;30333;52.192;8.834;2023-03-23T09:25:52;14.80;99.90
44627;DHT22;30333;52.192;8.834;2023-03-23T09:28:19;14.80;99.90
44627;DHT22;30333;52.192;8.834;2023-03-23T09:30:45;14.90;99.90
44627;DHT22;30333;52.192;8.834;2023-03-23T09:33:13;15.00;99.90
44627;DHT22;30333;52.192;8.834;2023-03-23T09:35:39;15.10;99.90
44627;DHT22;30333;52.192;8.834;2023-03-23T09:40:48;15.30;99.90
44627;DHT22;30333;52.192;8.834;2023-03-23T09:43:49;15.40;99.90
44627;DHT22;30333;52.192;8.834;2023-03-23T09:46:38;15.40;99.90
44627;DHT22;30333;52.192;8.834;2023-03-23T09:49:48;15.40;99.90
44627;DHT22;30333;52.192;8.834;2023-03-23T09:52:18;15.20;99.90
44627;DHT22;30333;52.192;8.834;2023-03-23T09:54:48;15.30;99.90
44627;DHT22;30333;52.192;8.834;2023-03-23T09:57:31;15.20;99.90
44627;DHT22;30333;52.192;8.834;2023-03-23T10:00:03;15.10;99.90
44627;DHT22;30333;52.192;8.834;2023-03-23T10:02:40;15.10;99.90
44627;DHT22;30333;52.192;8.834;2023-03-23T10:05:32;15.10;99.90
44627;DHT22;30333;52.192;8.834;2023-03-23T10:08:00;15.10;99.90
44627;DHT22;30333;52.192;8.834;2023-03-23T10:10:42;15.10;99.90
44627;DHT22;30333;52.192;8.834;2023-03-23T10:13:24;15.20;99.90
44627;DHT22;30333;52.192;8.834;2023-03-23T10:15:52;15.30;99.90
44627;DHT22;30333;52.192;8.834;2023-03-23T10:18:41;15.40;99.90
44627;DHT22;30333;52.192;8.834;2023-03-23T10:21:15;15.40;99.90
44627;DHT22;30333;52.192;8.834;2023-03-23T10:23:51;15.30;99.90
44627;DHT22;30333;52.192;8.834;2023-03-23T10:26:33;15.40;99.90
44627;DHT22;30333;52.192;8.834;2023-03-23T10:29:15;15.60;99.90
44627;DHT22;30333;52.192;8.834;2023-03-23T10:31:50;15.70;99.90
44627;DHT22;30333;52.192;8.834;2023-03-23T10:34:35;15.90;99.90
44627;DHT22;30333;52.192;8.834;2023-03-23T10:39:44;16.20;99.90
44627;DHT22;30333;52.192;8.834;2023-03-23T10:42:11;16.40;99.90
44627;DHT22;30333;52.192;8.834;2023-03-23T10:44:36;16.60;99.90
44627;DHT22;30333;52.192;8.834;2023-03-23T10:47:06;16.70;99.90
44627;DHT22;30333;52.192;8.834;2023-03-23T10:49:42;16.60;99.90
44627;DHT22;30333;52.192;8.834;2023-03-23T10:52:35;16.40;99.90
44627;DHT22;30333;52.192;8.834;2023-03-23T10:55:10;16.50;99.90
44627;DHT22;30333;52.192;8.834;2023-03-23T10:57:38;16.80;99.90
44627;DHT22;30333;52.192;8.834;2023-03-23T11:02:39;16.80;99.90
44627;DHT22;30333;52.192;8.834;2023-03-23T11:05:23;16.60;99.90
44627;DHT22;30333;52.192;8.834;2023-03-23T11:07:56;16.40;99.90
44627;DHT22;30333;52.192;8.834;2023-03-23T11:10:36;16.40;99.90
44627;DHT22;30333;52.192;8.834;2023-03-23T11:13:02;16.20;99.90
44627;DHT22;30333;52.192;8.834;2023-03-23T11:15:41;15.90;99.90
44627;DHT22;30333;52.192;8.834;2023-03-23T11:18:13;14.80;99.90
44627;DHT22;30333;52.192;8.834;2023-03-23T11:20:43;14.70;99.90
44627;DHT22;30333;52.192;8.834;2023-03-23T11:23:21;14.50;99.90
44627;DHT22;30333;52.192;8.834;2023-03-23T11:25:56;14.50;99.90
44627;DHT22;30333;52.192;8.834;2023-03-23T11:28:27;14.60;99.90
44627;DHT22;30333;52.192;8.834;2023-03-23T11:30:55;14.40;99.90
44627;DHT22;30333;52.192;8.834;2023-03-23T11:33:21;14.40;99.90
44627;DHT22;30333;52.192;8.834;2023-03-23T11:35:47;14.10;99.90
44627;DHT22;30333;52.192;8.834;2023-03-23T11:38:20;13.90;99.90
44627;DHT22;30333;52.192;8.834;2023-03-23T11:40:49;13.80;99.90
44627;DHT22;30333;52.192;8.834;2023-03-23T11:43:19;13.90;99.90
44627;DHT22;30333;52.192;8.834;2023-03-23T11:48:40;13.90;99.90
44627;DHT22;30333;52.192;8.834;2023-03-23T11:56:38;13.80;99.90
44627;DHT22;30333;52.192;8.834;2023-03-23T11:59:10;13.80;99.90
44627;DHT22;30333;52.192;8.834;2023-03-23T12:01:59;13.70;99.90
44627;DHT22;30333;52.192;8.834;2023-03-23T12:20:27;13.20;99.90
44627;DHT22;30333;52.192;8.834;2023-03-23T12:26:03;13.50;99.90
44627;DHT22;30333;52.192;8.834;2023-03-23T12:31:36;13.60;99.90
44627;DHT22;30333;52.192;8.834;2023-03-23T12:37:28;13.50;99.90
44627;DHT22;30333;52.192;8.834;2023-03-23T12:43:05;13.20;99.90
44627;DHT22;30333;52.192;8.834;2023-03-23T12:46:01;13.20;99.90
44627;DHT22;30333;52.192;8.834;2023-03-23T12:48:46;13.20;99.90
44627;DHT22;30333;52.192;8.834;2023-03-23T12:51:24;13.30;99.90
44627;DHT22;30333;52.192;8.834;2023-03-23T12:54:24;13.30;99.90
44627;DHT22;30333;52.192;8.834;2023-03-23T12:56:54;13.30;99.90
44627;DHT22;30333;52.192;8.834;2023-03-23T13:01:51;13.20;99.90
44627;DHT22;30333;52.192;8.834;2023-03-23T13:04:27;13.30;99.90
44627;DHT22;30333;52.192;8.834;2023-03-23T13:06:55;13.30;99.90
44627;DHT22;30333;52.192;8.834;2023-03-23T13:11:53;13.20;99.90
44627;DHT22;30333;52.192;8.834;2023-03-23T13:14:55;13.30;99.90
44627;DHT22;30333;52.192;8.834;2023-03-23T13:19:58;13.50;99.90
44627;DHT22;30333;52.192;8.834;2023-03-23T13:22:44;13.50;99.90
44627;DHT22;30333;52.192;8.834;2023-03-23T13:25:19;13.50;99.90
44627;DHT22;30333;52.192;8.834;2023-03-23T13:27:58;13.50;99.90
44627;DHT22;30333;52.192;8.834;2023-03-23T13:30:24;13.50;99.90
44627;DHT22;30333;52.192;8.834;2023-03-23T13:32:51;13.50;99.90
44627;DHT22;30333;52.192;8.834;2023-03-23T13:35:19;13.50;99.90
44627;DHT22;30333;52.192;8.834;2023-03-23T13:37:49;13.80;99.90
44627;DHT22;30333;52.192;8.834;2023-03-23T13:40:20;13.80;99.90
44627;DHT22;30333;52.192;8.834;2023-03-23T13:42:54;13.90;99.90
44627;DHT22;30333;52.192;8.834;2023-03-23T13:45:45;13.90;99.90
44627;DHT22;30333;52.192;8.834;2023-03-23T13:50:53;14.20;99.90
44627;DHT22;30333;52.192;8.834;2023-03-23T13:53:46;14.30;99.90
44627;DHT22;30333;52.192;8.834;2023-03-23T13:56:21;14.30;99.90
44627;DHT22;30333;52.192;8.834;2023-03-23T13:58:52;14.20;99.90
44627;DHT22;30333;52.192;8.834;2023-03-23T14:01:33;14.40;99.90
44627;DHT22;30333;52.192;8.834;2023-03-23T14:04:01;14.70;99.90
44627;DHT22;30333;52.192;8.834;2023-03-23T14:06:34;14.90;99.90
44627;DHT22;30333;52.192;8.834;2023-03-23T14:09:18;15.00;99.90
44627;DHT22;30333;52.192;8.834;2023-03-23T14:11:56;15.00;99.90
44627;DHT22;30333;52.192;8.834;2023-03-23T14:14:33;14.80;99.90
44627;DHT22;30333;52.192;8.834;2023-03-23T14:17:12;14.70;99.90
44627;DHT22;30333;52.192;8.834;2023-03-23T14:19:40;14.20;99.90
44627;DHT22;30333;52.192;8.834;2023-03-23T14:22:23;14.20;99.90
44627;DHT22;30333;52.192;8.834;2023-03-23T14:24:48;14.20;99.90
44627;DHT22;30333;52.192;8.834;2023-03-23T14:27:19;14.30;99.90
44627;DHT22;30333;52.192;8.834;2023-03-23T14:29:46;14.30;99.90
44627;DHT22;30333;52.192;8.834;2023-03-23T14:32:17;14.20;99.90
44627;DHT22;30333;52.192;8.834;2023-03-23T14:34:45;14.30;99.90
44627;DHT22;30333;52.192;8.834;2023-03-23T14:37:13;14.20;99.90
44627;DHT22;30333;52.192;8.834;2023-03-23T14:39:39;14.20;99.90
44627;DHT22;30333;52.192;8.834;2023-03-23T14:42:11;14.20;99.90
44627;DHT22;30333;52.192;8.834;2023-03-23T14:44:43;14.40;99.90
44627;DHT22;30333;52.192;8.834;2023-03-23T14:47:37;14.70;99.90
44627;DHT22;30333;52.192;8.834;2023-03-23T14:50:06;14.80;99.90
44627;DHT22;30333;52.192;8.834;2023-03-23T14:52:36;14.80;99.90
44627;DHT22;30333;52.192;8.834;2023-03-23T14:55:12;14.80;99.90
44627;DHT22;30333;52.192;8.834;2023-03-23T14:57:40;14.50;99.90
44627;DHT22;30333;52.192;8.834;2023-03-23T15:00:29;14.50;99.90
44627;DHT22;30333;52.192;8.834;2023-03-23T15:02:59;14.60;99.90
44627;DHT22;30333;52.192;8.834;2023-03-23T15:05:32;14.60;99.90
44627;DHT22;30333;52.192;8.834;2023-03-23T15:08:04;14.60;99.90
44627;DHT22;30333;52.192;8.834;2023-03-23T15:10:30;14.80;99.90
44627;DHT22;30333;52.192;8.834;2023-03-23T15:12:56;14.80;99.90
44627;DHT22;30333;52.192;8.834;2023-03-23T15:15:32;14.70;99.90
44627;DHT22;30333;52.192;8.834;2023-03-23T15:17:59;14.70;99.90
44627;DHT22;30333;52.192;8.834;2023-03-23T15:20:47;14.70;99.90
44627;DHT22;30333;52.192;8.834;2023-03-23T15:23:22;14.70;99.90
44627;DHT22;30333;52.192;8.834;2023-03-23T15:25:52;14.50;99.90
44627;DHT22;30333;52.192;8.834;2023-03-23T15:28:21;14.50;99.90
44627;DHT22;30333;52.192;8.834;2023-03-23T15:30:52;14.50;99.90
44627;DHT22;30333;52.192;8.834;2023-03-23T15:33:18;14.50;99.90
44627;DHT22;30333;52.192;8.834;2023-03-23T15:35:51;14.50;99.90
44627;DHT22;30333;52.192;8.834;2023-03-23T15:38:32;14.40;99.90
44627;DHT22;30333;52.192;8.834;2023-03-23T15:41:01;14.20;99.90
44627;DHT22;30333;52.192;8.834;2023-03-23T15:43:51;14.10;99.90
44627;DHT22;30333;52.192;8.834;2023-03-23T15:49:04;14.30;99.90
44627;DHT22;30333;52.192;8.834;2023-03-23T15:51:32;14.30;99.90
44627;DHT22;30333;52.192;8.834;2023-03-23T15:53:58;14.30;99.90
44627;DHT22;30333;52.192;8.834;2023-03-23T15:56:24;14.30;99.90
44627;DHT22;30333;52.192;8.834;2023-03-23T16:01:20;14.20;99.90
44627;DHT22;30333;52.192;8.834;2023-03-23T16:06:19;14.30;99.90
44627;DHT22;30333;52.192;8.834;2023-03-23T16:08:45;14.30;99.90
44627;DHT22;30333;52.192;8.834;2023-03-23T16:11:12;14.30;99.90
44627;DHT22;30333;52.192;8.834;2023-03-23T16:13:38;14.30;99.90
44627;DHT22;30333;52.192;8.834;2023-03-23T16:16:04;14.30;99.90
44627;DHT22;30333;52.192;8.834;2023-03-23T16:18:30;14.20;99.90
44627;DHT22;30333;52.192;8.834;2023-03-23T16:20:57;14.10;99.90
44627;DHT22;30333;52.192;8.834;2023-03-23T16:23:22;14.00;99.90
44627;DHT22;30333;52.192;8.834;2023-03-23T16:25:48;13.90;99.90
44627;DHT22;30333;52.192;8.834;2023-03-23T16:28:14;13.90;99.90
44627;DHT22;30333;52.192;8.834;2023-03-23T16:30:41;13.90;99.90
44627;DHT22;30333;52.192;8.834;2023-03-23T16:33:07;13.90;99.90
44627;DHT22;30333;52.192;8.834;2023-03-23T16:35:34;13.90;99.90
44627;DHT22;30333;52.192;8.834;2023-03-23T16:38:00;13.90;99.90
44627;DHT22;30333;52.192;8.834;2023-03-23T16:40:25;13.80;99.90
44627;DHT22;30333;52.192;8.834;2023-03-23T16:42:51;13.80;99.90
44627;DHT22;30333;52.192;8.834;2023-03-23T16:45:17;13.60;99.90
44627;DHT22;30333;52.192;8.834;2023-03-23T16:50:15;13.30;99.90
44627;DHT22;30333;52.192;8.834;2023-03-23T16:52:42;13.30;99.90
44627;DHT22;30333;52.192;8.834;2023-03-23T16:55:09;13.20;99.90
44627;DHT22;30333;52.192;8.834;2023-03-23T16:57:36;13.10;99.90
44627;DHT22;30333;52.192;8.834;2023-03-23T17:00:12;13.00;99.90
44627;DHT22;30333;52.192;8.834;2023-03-23T17:02:41;13.20;99.90
44627;DHT22;30333;52.192;8.834;2023-03-23T17:05:08;13.20;99.90
44627;DHT22;30333;52.192;8.834;2023-03-23T17:10:00;13.10;99.90
44627;DHT22;30333;52.192;8.834;2023-03-23T17:12:26;13.20;99.90
44627;DHT22;30333;52.192;8.834;2023-03-23T17:14:52;13.20;99.90
44627;DHT22;30333;52.192;8.834;2023-03-23T17:17:17;13.10;99.90
44627;DHT22;30333;52.192;8.834;2023-03-23T17:19:43;13.00;99.90
44627;DHT22;30333;52.192;8.834;2023-03-23T17:22:08;13.00;99.90
44627;DHT22;30333;52.192;8.834;2023-03-23T17:24:34;13.00;99.90
44627;DHT22;30333;52.192;8.834;2023-03-23T17:26:59;13.00;99.90
44627;DHT22;30333;52.192;8.834;2023-03-23T17:29:25;12.90;99.90
44627;DHT22;30333;52.192;8.834;2023-03-23T17:31:50;12.80;99.90
44627;DHT22;30333;52.192;8.834;2023-03-23T17:34:16;12.80;99.90
44627;DHT22;30333;52.192;8.834;2023-03-23T17:36:42;12.50;99.90
44627;DHT22;30333;52.192;8.834;2023-03-23T17:39:07;12.50;99.90
44627;DHT22;30333;52.192;8.834;2023-03-23T17:43:59;12.50;99.90
44627;DHT22;30333;52.192;8.834;2023-03-23T17:46:24;12.40;99.90
44627;DHT22;30333;52.192;8.834;2023-03-23T17:48:50;12.50;99.90
44627;DHT22;30333;52.192;8.834;2023-03-23T17:51:16;12.60;99.90
44627;DHT22;30333;52.192;8.834;2023-03-23T17:53:41;12.60;99.90
44627;DHT22;30333;52.192;8.834;2023-03-23T17:56:07;12.70;99.90
44627;DHT22;30333;52.192;8.834;2023-03-23T17:58:33;12.70;99.90
44627;DHT22;30333;52.192;8.834;2023-03-23T18:01:00;12.70;99.90
44627;DHT22;30333;52.192;8.834;2023-03-23T18:03:26;12.70;99.90
44627;DHT22;30333;52.192;8.834;2023-03-23T18:06:03;12.70;99.90
44627;DHT22;30333;52.192;8.834;2023-03-23T18:08:30;12.70;99.90
44627;DHT22;30333;52.192;8.834;2023-03-23T18:10:56;12.70;99.90
44627;DHT22;30333;52.192;8.834;2023-03-23T18:13:23;12.70;99.90
44627;DHT22;30333;52.192;8.834;2023-03-23T18:15:50;12.70;99.90
44627;DHT22;30333;52.192;8.834;2023-03-23T18:18:15;12.80;99.90
44627;DHT22;30333;52.192;8.834;2023-03-23T18:20:41;12.80;99.90
44627;DHT22;30333;52.192;8.834;2023-03-23T18:25:32;12.90;99.90
44627;DHT22;30333;52.192;8.834;2023-03-23T18:27:58;12.90;99.90
44627;DHT22;30333;52.192;8.834;2023-03-23T18:30:24;12.90;99.90
44627;DHT22;30333;52.192;8.834;2023-03-23T18:32:51;12.90;99.90
44627;DHT22;30333;52.192;8.834;2023-03-23T18:35:17;12.90;99.90
44627;DHT22;30333;52.192;8.834;2023-03-23T18:37:43;12.90;99.90
44627;DHT22;30333;52.192;8.834;2023-03-23T18:40:09;12.90;99.90
44627;DHT22;30333;52.192;8.834;2023-03-23T18:42:36;12.90;99.90
44627;DHT22;30333;52.192;8.834;2023-03-23T18:45:02;12.90;99.90
44627;DHT22;30333;52.192;8.834;2023-03-23T18:47:28;12.90;99.90
44627;DHT22;30333;52.192;8.834;2023-03-23T18:52:21;12.90;99.90
44627;DHT22;30333;52.192;8.834;2023-03-23T18:54:47;12.90;99.90
44627;DHT22;30333;52.192;8.834;2023-03-23T18:57:12;12.90;99.90
44627;DHT22;30333;52.192;8.834;2023-03-23T18:59:39;12.90;99.90
44627;DHT22;30333;52.192;8.834;2023-03-23T19:02:05;12.80;99.90
44627;DHT22;30333;52.192;8.834;2023-03-23T19:04:30;12.70;99.90
44627;DHT22;30333;52.192;8.834;2023-03-23T19:06:58;12.60;99.90
44627;DHT22;30333;52.192;8.834;2023-03-23T19:11:50;12.50;99.90
44627;DHT22;30333;52.192;8.834;2023-03-23T19:14:15;12.40;99.90
44627;DHT22;30333;52.192;8.834;2023-03-23T19:16:42;12.40;99.90
44627;DHT22;30333;52.192;8.834;2023-03-23T19:19:08;12.40;99.90
44627;DHT22;30333;52.192;8.834;2023-03-23T19:21:33;12.30;99.90
44627;DHT22;30333;52.192;8.834;2023-03-23T19:24:00;12.30;99.90
44627;DHT22;30333;52.192;8.834;2023-03-23T19:26:37;12.40;99.90
44627;DHT22;30333;52.192;8.834;2023-03-23T19:29:05;12.40;99.90
44627;DHT22;30333;52.192;8.834;2023-03-23T19:31:31;12.50;99.90
44627;DHT22;30333;52.192;8.834;2023-03-23T19:33:57;12.40;99.90
44627;DHT22;30333;52.192;8.834;2023-03-23T19:36:23;12.40;99.90
44627;DHT22;30333;52.192;8.834;2023-03-23T19:38:49;12.50;99.90
44627;DHT22;30333;52.192;8.834;2023-03-23T19:41:16;12.50;99.90
44627;DHT22;30333;52.192;8.834;2023-03-23T19:43:42;12.50;99.90
44627;DHT22;30333;52.192;8.834;2023-03-23T19:46:09;12.40;99.90
44627;DHT22;30333;52.192;8.834;2023-03-23T19:48:34;12.40;99.90
44627;DHT22;30333;52.192;8.834;2023-03-23T19:51:02;12.30;99.90
44627;DHT22;30333;52.192;8.834;2023-03-23T19:53:28;12.20;99.90
44627;DHT22;30333;52.192;8.834;2023-03-23T19:55:53;12.30;99.90
44627;DHT22;30333;52.192;8.834;2023-03-23T20:00:45;12.00;99.90
44627;DHT22;30333;52.192;8.834;2023-03-23T20:03:11;12.00;99.90
44627;DHT22;30333;52.192;8.834;2023-03-23T20:05:36;12.10;99.90
44627;DHT22;30333;52.192;8.834;2023-03-23T20:08:05;12.10;99.90
44627;DHT22;30333;52.192;8.834;2023-03-23T20:10:31;12.10;99.90
44627;DHT22;30333;52.192;8.834;2023-03-23T20:13:03;12.10;99.90
44627;DHT22;30333;52.192;8.834;2023-03-23T20:15:29;12.20;99.90
44627;DHT22;30333;52.192;8.834;2023-03-23T20:20:28;12.20;99.90
44627;DHT22;30333;52.192;8.834;2023-03-23T20:25:23;12.20;99.90
44627;DHT22;30333;52.192;8.834;2023-03-23T20:27:48;12.30;99.90
44627;DHT22;30333;52.192;8.834;2023-03-23T20:30:14;12.20;99.90
44627;DHT22;30333;52.192;8.834;2023-03-23T20:32:39;12.40;99.90
44627;DHT22;30333;52.192;8.834;2023-03-23T20:35:08;12.30;99.90
44627;DHT22;30333;52.192;8.834;2023-03-23T20:37:38;12.30;99.90
44627;DHT22;30333;52.192;8.834;2023-03-23T20:40:06;12.20;99.90
44627;DHT22;30333;52.192;8.834;2023-03-23T20:42:33;12.30;99.90